createdAt,value
2023-04-13T00:02:10.303Z,95415.75
2023-04-13T00:04:37.368Z,95414.78
2023-04-13T00:07:03.958Z,95421.72
2023-04-13T00:09:33.834Z,95403.66
2023-04-13T00:12:00.574Z,95408.13
2023-04-13T00:14:29.538Z,95403.84
2023-04-13T00:16:56.886Z,95390.25
2023-04-13T00:19:24.189Z,95398.16
2023-04-13T00:21:52.843Z,95392.22
2023-04-13T00:24:19.916Z,95391.88
2023-04-13T00:26:47.000Z,95387.53
2023-04-13T00:29:14.356Z,95383.88
2023-04-13T00:31:41.037Z,95386.47
2023-04-13T00:34:07.769Z,95380.03
2023-04-13T00:36:34.421Z,95381.63
2023-04-13T00:39:01.051Z,95379.16
2023-04-13T00:41:27.854Z,95367.06
2023-04-13T00:43:54.519Z,95355.22
2023-04-13T00:46:22.559Z,95371.66
2023-04-13T00:48:49.844Z,95365.38
2023-04-13T00:51:17.097Z,95371.00
2023-04-13T00:53:44.289Z,95364.91
2023-04-13T00:56:11.016Z,95354.78
2023-04-13T00:58:37.944Z,95357.75
2023-04-13T01:01:04.949Z,95363.66
2023-04-13T01:03:31.941Z,95347.88
2023-04-13T01:06:42.105Z,95361.13
2023-04-13T01:09:15.879Z,95350.06
2023-04-13T01:11:53.931Z,95366.34
2023-04-13T01:14:33.959Z,95349.72
2023-04-13T01:17:05.980Z,95335.22
2023-04-13T01:19:56.975Z,95353.38
2023-04-13T01:22:29.367Z,95344.75
2023-04-13T01:25:28.820Z,95334.69
2023-04-13T01:28:02.366Z,95332.44
2023-04-13T01:30:31.640Z,95338.66
2023-04-13T01:32:59.491Z,95345.88
2023-04-13T01:35:26.302Z,95340.28
2023-04-13T01:37:53.154Z,95327.47
2023-04-13T01:40:25.081Z,95341.56
2023-04-13T01:42:52.529Z,95336.53
2023-04-13T01:45:27.197Z,95352.31
2023-04-13T01:48:12.528Z,95327.47
2023-04-13T01:50:45.439Z,95339.13
2023-04-13T01:53:16.378Z,95346.78
2023-04-13T01:55:44.685Z,95339.56
2023-04-13T01:58:13.247Z,95339.91
2023-04-13T02:00:40.578Z,95344.72
2023-04-13T02:03:09.854Z,95309.34
2023-04-13T02:05:42.986Z,95322.75
2023-04-13T02:08:09.920Z,95317.28
2023-04-13T02:10:37.694Z,95334.94
2023-04-13T02:13:04.386Z,95317.09
2023-04-13T02:15:41.588Z,95318.94
2023-04-13T02:18:08.438Z,95309.81
2023-04-13T02:20:43.404Z,95335.91
2023-04-13T02:23:11.978Z,95324.25
2023-04-13T02:25:38.843Z,95336.03
2023-04-13T02:28:05.523Z,95345.50
2023-04-13T02:30:32.719Z,95322.78
2023-04-13T02:32:59.370Z,95336.19
2023-04-13T02:35:25.971Z,95346.44
2023-04-13T02:37:52.642Z,95348.66
2023-04-13T02:40:19.626Z,95325.75
2023-04-13T02:42:46.407Z,95347.91
2023-04-13T02:45:14.583Z,95346.66
2023-04-13T02:47:41.197Z,95346.28
2023-04-13T02:50:08.543Z,95358.03
2023-04-13T02:52:35.199Z,95322.50
2023-04-13T02:55:02.105Z,95339.78
2023-04-13T02:57:29.785Z,95349.09
2023-04-13T02:59:56.527Z,95377.59
2023-04-13T03:02:23.540Z,95345.66
2023-04-13T03:04:51.193Z,95360.97
2023-04-13T03:07:18.784Z,95362.84
2023-04-13T03:09:45.774Z,95342.28
2023-04-13T03:12:12.463Z,95352.13
2023-04-13T03:14:39.189Z,95371.44
2023-04-13T03:17:07.503Z,95343.66
2023-04-13T03:19:36.185Z,95336.84
2023-04-13T03:22:02.879Z,95352.94
2023-04-13T03:24:29.626Z,95346.91
2023-04-13T03:26:59.513Z,95344.44
2023-04-13T03:29:26.282Z,95338.66
2023-04-13T03:31:52.922Z,95344.81
2023-04-13T03:34:19.826Z,95352.38
2023-04-13T03:36:46.632Z,95332.22
2023-04-13T03:39:13.270Z,95342.59
2023-04-13T03:41:39.870Z,95356.03
2023-04-13T03:44:07.638Z,95361.75
2023-04-13T03:46:38.211Z,95331.25
2023-04-13T03:49:07.677Z,95349.75
2023-04-13T03:51:35.183Z,95338.38
2023-04-13T03:54:01.922Z,95335.09
2023-04-13T03:56:28.686Z,95358.09
2023-04-13T03:58:55.514Z,95360.25
2023-04-13T04:01:23.375Z,95368.03
2023-04-13T04:03:50.070Z,95353.75
2023-04-13T04:06:16.704Z,95379.63
2023-04-13T04:08:43.955Z,95356.72
2023-04-13T04:11:10.500Z,95356.78
2023-04-13T04:13:37.139Z,95370.69
2023-04-13T04:16:07.282Z,95376.97
2023-04-13T04:18:33.927Z,95384.00
2023-04-13T04:21:02.925Z,95376.28
2023-04-13T04:23:30.386Z,95377.66
2023-04-13T04:25:59.938Z,95384.28
2023-04-13T04:28:26.550Z,95372.53
2023-04-13T04:30:55.986Z,95391.06
2023-04-13T04:33:22.880Z,95382.97
2023-04-13T04:35:50.332Z,95384.03
2023-04-13T04:38:18.076Z,95379.81
2023-04-13T04:40:45.509Z,95385.09
2023-04-13T04:43:15.865Z,95397.28
2023-04-13T04:45:43.775Z,95393.91
2023-04-13T04:48:11.888Z,95388.19
2023-04-13T04:50:38.700Z,95391.44
2023-04-13T04:53:05.530Z,95391.94
2023-04-13T04:55:32.294Z,95410.56
2023-04-13T04:57:58.832Z,95398.13
2023-04-13T05:00:26.624Z,95402.16
2023-04-13T05:02:53.505Z,95412.78
2023-04-13T05:05:20.324Z,95408.81
2023-04-13T05:07:47.083Z,95400.81
2023-04-13T05:10:13.739Z,95401.25
2023-04-13T05:12:40.291Z,95400.81
2023-04-13T05:15:07.563Z,95398.03
2023-04-13T05:17:34.859Z,95420.16
2023-04-13T05:20:01.561Z,95414.31
2023-04-13T05:22:28.401Z,95432.25
2023-04-13T05:24:54.989Z,95425.00
2023-04-13T05:27:21.526Z,95444.38
2023-04-13T05:29:48.196Z,95430.69
2023-04-13T05:32:14.761Z,95440.41
2023-04-13T05:34:41.401Z,95428.88
2023-04-13T05:37:08.668Z,95440.97
2023-04-13T05:39:35.237Z,95443.13
2023-04-13T05:42:01.928Z,95433.16
2023-04-13T05:44:28.513Z,95463.31
2023-04-13T05:46:55.121Z,95449.00
2023-04-13T05:49:21.768Z,95450.16
2023-04-13T05:51:48.479Z,95465.09
2023-04-13T05:54:15.163Z,95464.31
2023-04-13T05:56:41.716Z,95472.66
2023-04-13T05:59:08.802Z,95459.47
2023-04-13T06:01:36.503Z,95470.34
2023-04-13T06:04:03.720Z,95481.03
2023-04-13T06:06:30.695Z,95490.38
2023-04-13T06:08:57.628Z,95504.22
2023-04-13T06:11:25.914Z,95494.84
2023-04-13T06:13:52.473Z,95498.50
2023-04-13T06:16:19.158Z,95501.31
2023-04-13T06:18:45.921Z,95515.06
2023-04-13T06:21:12.579Z,95519.47
2023-04-13T06:23:39.248Z,95525.44
2023-04-13T06:26:06.947Z,95536.38
2023-04-13T06:28:33.737Z,95522.22
2023-04-13T06:31:00.553Z,95543.34
2023-04-13T06:33:27.876Z,95553.91
2023-04-13T06:35:54.502Z,95539.47
2023-04-13T06:38:21.184Z,95558.69
2023-04-13T06:40:47.859Z,95557.50
2023-04-13T06:43:26.323Z,95556.31
2023-04-13T06:45:59.915Z,95563.97
2023-04-13T06:48:27.172Z,95567.03
2023-04-13T06:50:57.229Z,95566.00
2023-04-13T06:53:23.980Z,95582.31
2023-04-13T06:55:50.970Z,95578.97
2023-04-13T06:58:17.570Z,95577.41
2023-04-13T07:00:44.349Z,95604.47
2023-04-13T07:03:11.285Z,95589.78
2023-04-13T07:05:39.010Z,95600.84
2023-04-13T07:08:06.556Z,95604.47
2023-04-13T07:10:33.387Z,95605.22
2023-04-13T07:12:59.985Z,95607.59
2023-04-13T07:15:26.966Z,95624.44
2023-04-13T07:17:56.033Z,95604.94
2023-04-13T07:20:22.783Z,95614.53
2023-04-13T07:22:49.354Z,95617.25
2023-04-13T07:25:16.216Z,95627.47
2023-04-13T07:27:42.900Z,95612.81
2023-04-13T07:30:09.641Z,95614.72
2023-04-13T07:32:36.648Z,95635.06
2023-04-13T07:35:03.752Z,95626.81
2023-04-13T07:37:30.805Z,95622.38
2023-04-13T07:39:57.452Z,95636.47
2023-04-13T07:42:25.216Z,95631.53
2023-04-13T07:44:56.056Z,95637.34
2023-04-13T07:47:22.757Z,95640.19
2023-04-13T07:49:49.475Z,95652.31
2023-04-13T07:52:16.229Z,95655.34
2023-04-13T07:54:42.917Z,95659.97
2023-04-13T07:57:09.625Z,95659.78
2023-04-13T07:59:36.652Z,95653.91
2023-04-13T08:02:04.573Z,95675.28
2023-04-13T08:04:31.988Z,95677.66
2023-04-13T08:07:03.418Z,95687.50
2023-04-13T08:09:36.251Z,95680.72
2023-04-13T08:12:03.949Z,95681.75
2023-04-13T08:14:31.233Z,95689.41
2023-04-13T08:16:58.054Z,95682.81
2023-04-13T08:19:24.837Z,95683.41
2023-04-13T08:21:52.619Z,95685.81
2023-04-13T08:24:20.840Z,95697.53
2023-04-13T08:26:47.525Z,95703.41
2023-04-13T08:29:14.651Z,95686.44
2023-04-13T08:31:41.390Z,95705.63
2023-04-13T08:34:10.454Z,95688.69
2023-04-13T08:36:37.992Z,95689.25
2023-04-13T08:39:05.975Z,95689.03
2023-04-13T08:41:36.366Z,95698.78
2023-04-13T08:44:07.050Z,95701.44
2023-04-13T08:46:37.077Z,95707.78
2023-04-13T08:49:03.908Z,95722.34
2023-04-13T08:51:32.198Z,95716.41
2023-04-13T08:53:59.392Z,95723.09
2023-04-13T08:56:42.120Z,95725.94
2023-04-13T08:59:13.286Z,95728.97
2023-04-13T09:01:40.242Z,95732.66
2023-04-13T09:04:09.665Z,95746.44
2023-04-13T09:06:41.541Z,95759.94
2023-04-13T09:09:10.835Z,95753.28
2023-04-13T09:11:38.033Z,95738.75
2023-04-13T09:14:04.926Z,95777.31
2023-04-13T09:16:39.425Z,95750.03
2023-04-13T09:19:06.143Z,95759.75
2023-04-13T09:21:40.852Z,95765.34
2023-04-13T09:24:07.820Z,95766.16
2023-04-13T09:26:45.299Z,95765.97
2023-04-13T09:29:16.459Z,95773.59
2023-04-13T09:31:45.432Z,95780.28
2023-04-13T09:34:13.281Z,95784.69
2023-04-13T09:36:52.945Z,95793.22
2023-04-13T09:39:29.593Z,95799.31
2023-04-13T09:41:56.872Z,95796.66
2023-04-13T09:44:24.922Z,95805.50
2023-04-13T09:47:02.624Z,95805.75
2023-04-13T09:49:39.207Z,95796.47
2023-04-13T09:52:23.305Z,95809.44
2023-04-13T09:54:55.213Z,95805.38
2023-04-13T09:57:32.046Z,95799.06
2023-04-13T10:00:07.166Z,95814.53
2023-04-13T10:02:33.968Z,95822.94
2023-04-13T10:05:01.395Z,95829.44
2023-04-13T10:07:30.730Z,95817.88
2023-04-13T10:09:57.285Z,95836.19
2023-04-13T10:12:24.886Z,95819.94
2023-04-13T10:14:52.920Z,95824.00
2023-04-13T10:17:22.814Z,95827.13
2023-04-13T10:19:51.970Z,95821.44
2023-04-13T10:22:22.769Z,95819.06
2023-04-13T10:24:51.544Z,95826.03
2023-04-13T10:27:22.484Z,95823.19
2023-04-13T10:29:50.186Z,95832.66
2023-04-13T10:32:22.135Z,95827.56
2023-04-13T10:34:49.030Z,95831.59
2023-04-13T10:37:27.458Z,95821.66
2023-04-13T10:40:10.361Z,95845.38
2023-04-13T10:42:51.847Z,95849.63
2023-04-13T10:45:21.871Z,95846.19
2023-04-13T10:47:48.536Z,95860.31
2023-04-13T10:50:27.525Z,95868.50
2023-04-13T10:53:01.744Z,95871.56
2023-04-13T10:55:28.452Z,95870.31
2023-04-13T10:57:56.657Z,95870.44
2023-04-13T11:00:34.775Z,95883.78
2023-04-13T11:03:11.490Z,95864.59
2023-04-13T11:05:38.512Z,95865.81
2023-04-13T11:08:05.946Z,95865.53
2023-04-13T11:10:32.690Z,95845.34
2023-04-13T11:12:59.348Z,95859.69
2023-04-13T11:15:30.127Z,95856.97
2023-04-13T11:18:02.204Z,95861.13
2023-04-13T11:20:33.854Z,95871.94
2023-04-13T11:23:02.413Z,95867.00
2023-04-13T11:25:29.678Z,95881.19
2023-04-13T11:28:01.103Z,95857.91
2023-04-13T11:30:28.101Z,95877.47
2023-04-13T11:32:58.438Z,95864.53
2023-04-13T11:35:25.256Z,95872.69
2023-04-13T11:37:54.169Z,95879.84
2023-04-13T11:40:25.814Z,95875.16
2023-04-13T11:42:54.340Z,95873.34
2023-04-13T11:45:23.515Z,95886.59
2023-04-13T11:47:50.838Z,95891.53
2023-04-13T11:50:18.089Z,95897.72
2023-04-13T11:52:46.750Z,95913.47
2023-04-13T11:55:22.267Z,95914.97
2023-04-13T11:57:51.184Z,95900.88
2023-04-13T12:00:27.803Z,95893.03
2023-04-13T12:05:31.564Z,95900.47
2023-04-13T12:07:59.452Z,95893.59
2023-04-13T12:10:38.212Z,95903.47
2023-04-13T12:15:58.191Z,95884.38
2023-04-13T12:18:36.931Z,95888.66
2023-04-13T12:21:05.904Z,95896.50
2023-04-13T12:23:32.978Z,95896.66
2023-04-13T12:26:25.529Z,95901.66
2023-04-13T12:28:49.397Z,95908.53
2023-04-13T12:31:16.294Z,95910.56
2023-04-13T12:33:42.981Z,95911.41
2023-04-13T12:36:12.513Z,95907.03
2023-04-13T12:38:39.268Z,95917.16
2023-04-13T12:41:10.071Z,95906.56
2023-04-13T12:43:36.802Z,95901.72
2023-04-13T12:46:03.328Z,95912.31
2023-04-13T12:48:30.985Z,95901.75
2023-04-13T12:50:57.607Z,95920.81
2023-04-13T12:53:24.291Z,95917.78
2023-04-13T12:55:51.044Z,95920.94
2023-04-13T12:58:17.682Z,95927.69
2023-04-13T13:00:44.383Z,95932.88
2023-04-13T13:03:14.960Z,95935.13
2023-04-13T13:05:42.418Z,95925.66
2023-04-13T13:08:09.535Z,95924.53
2023-04-13T13:10:37.213Z,95931.47
2023-04-13T13:13:04.288Z,95923.84
2023-04-13T13:15:31.872Z,95941.28
2023-04-13T13:18:00.927Z,95941.91
2023-04-13T13:20:27.568Z,95938.34
2023-04-13T13:22:54.293Z,95937.44
2023-04-13T13:25:20.920Z,95948.97
2023-04-13T13:30:17.030Z,95955.47
2023-04-13T13:32:43.654Z,95961.50
2023-04-13T13:35:10.811Z,95972.03
2023-04-13T13:37:37.394Z,95970.13
2023-04-13T13:40:13.084Z,95960.59
2023-04-13T13:42:51.225Z,95957.69
2023-04-13T13:45:19.215Z,95945.28
2023-04-13T13:47:50.176Z,95953.81
2023-04-13T13:50:16.900Z,95960.84
2023-04-13T13:52:55.663Z,95956.53
2023-04-13T13:55:29.362Z,95950.06
2023-04-13T13:57:55.931Z,95957.44
2023-04-13T14:00:22.854Z,95950.66
2023-04-13T14:02:49.497Z,95953.78
2023-04-13T14:05:16.381Z,95958.31
2023-04-13T14:07:44.185Z,95956.69
2023-04-13T14:10:19.995Z,95953.94
2023-04-13T14:12:49.595Z,95958.50
2023-04-13T14:15:17.132Z,95951.81
2023-04-13T14:17:45.477Z,95949.03
2023-04-13T14:20:15.635Z,95947.75
2023-04-13T14:22:42.320Z,95956.25
2023-04-13T14:25:09.461Z,95959.06
2023-04-13T14:27:36.780Z,95963.50
2023-04-13T14:30:04.639Z,95955.53
2023-04-13T14:32:31.939Z,95963.63
2023-04-13T14:34:59.929Z,95976.72
2023-04-13T14:37:29.884Z,95968.06
2023-04-13T14:39:56.525Z,95967.88
2023-04-13T14:42:24.848Z,95974.22
2023-04-13T14:44:54.221Z,95981.91
2023-04-13T14:47:20.888Z,95978.84
2023-04-13T14:49:47.807Z,95978.72
2023-04-13T14:52:14.929Z,95987.38
2023-04-13T14:54:42.135Z,95973.75
2023-04-13T14:57:09.871Z,95972.81
2023-04-13T14:59:37.365Z,95982.78
2023-04-13T15:02:04.328Z,95989.91
2023-04-13T15:04:31.555Z,95988.63
2023-04-13T15:06:58.816Z,95982.69
2023-04-13T15:09:25.616Z,95980.56
2023-04-13T15:11:52.451Z,95988.66
2023-04-13T15:14:19.392Z,95979.75
2023-04-13T15:16:46.342Z,95989.03
2023-04-13T15:19:13.098Z,95984.47
2023-04-13T15:21:41.675Z,95993.72
2023-04-13T15:24:09.163Z,95985.44
2023-04-13T15:26:41.050Z,96003.88
2023-04-13T15:29:08.637Z,96006.81
2023-04-13T15:31:37.290Z,96003.81
2023-04-13T15:34:08.653Z,95992.97
2023-04-13T15:36:36.010Z,96008.03
2023-04-13T15:39:03.805Z,96007.00
2023-04-13T15:41:31.135Z,96009.75
2023-04-13T15:43:59.833Z,96012.06
2023-04-13T15:46:27.686Z,96021.81
2023-04-13T15:48:55.080Z,96022.28
2023-04-13T15:51:22.207Z,96013.13
2023-04-13T15:53:48.856Z,96036.50
2023-04-13T15:56:15.606Z,96028.19
2023-04-13T15:58:42.338Z,96032.50
2023-04-13T16:01:10.685Z,96042.66
2023-04-13T16:03:37.974Z,96029.78
2023-04-13T16:06:04.888Z,96048.53
2023-04-13T16:08:31.523Z,96053.47
2023-04-13T16:10:58.084Z,96052.88
2023-04-13T16:13:34.682Z,96052.34
2023-04-13T16:16:08.068Z,96054.97
2023-04-13T16:18:35.911Z,96054.13
2023-04-13T16:21:03.597Z,96043.19
2023-04-13T16:23:33.312Z,96057.78
2023-04-13T16:26:00.964Z,96059.09
2023-04-13T16:28:28.766Z,96065.66
2023-04-13T16:30:55.444Z,96064.50
2023-04-13T16:33:22.537Z,96072.19
2023-04-13T16:35:49.164Z,96078.00
2023-04-13T16:38:16.083Z,96078.44
2023-04-13T16:40:42.678Z,96089.91
2023-04-13T16:43:09.343Z,96098.09
2023-04-13T16:45:36.469Z,96088.50
2023-04-13T16:48:03.243Z,96091.72
2023-04-13T16:50:31.908Z,96097.25
2023-04-13T16:52:59.227Z,96086.00
2023-04-13T16:55:28.514Z,96083.16
2023-04-13T16:57:55.502Z,96092.84
2023-04-13T17:00:22.675Z,96101.47
2023-04-13T17:02:49.551Z,96102.00
2023-04-13T17:05:16.398Z,96104.50
2023-04-13T17:07:44.607Z,96102.38
2023-04-13T17:10:13.010Z,96100.66
2023-04-13T17:12:40.487Z,96111.47
2023-04-13T17:15:07.879Z,96111.13
2023-04-13T17:17:34.833Z,96101.00
2023-04-13T17:20:01.877Z,96117.78
2023-04-13T17:22:28.555Z,96107.66
2023-04-13T17:24:55.709Z,96112.09
2023-04-13T17:27:22.447Z,96120.53
2023-04-13T17:29:49.953Z,96106.13
2023-04-13T17:32:16.968Z,96113.19
2023-04-13T17:34:44.802Z,96121.03
2023-04-13T17:37:11.950Z,96119.75
2023-04-13T17:39:42.283Z,96119.94
2023-04-13T17:42:09.719Z,96123.38
2023-04-13T17:44:36.479Z,96131.19
2023-04-13T17:47:03.140Z,96139.66
2023-04-13T17:49:29.771Z,96135.56
2023-04-13T17:51:59.483Z,96157.41
2023-04-13T17:54:27.137Z,96154.47
2023-04-13T17:56:54.446Z,96163.09
2023-04-13T17:59:21.547Z,96169.94
2023-04-13T18:01:52.168Z,96182.13
2023-04-13T18:04:19.176Z,96180.03
2023-04-13T18:06:46.177Z,96195.72
2023-04-13T18:09:12.897Z,96201.09
2023-04-13T18:11:39.877Z,96189.03
2023-04-13T18:14:08.208Z,96188.09
2023-04-13T18:16:35.420Z,96191.56
2023-04-13T18:19:02.152Z,96205.16
2023-04-13T18:21:28.828Z,96193.34
2023-04-13T18:23:55.552Z,96191.91
2023-04-13T18:26:22.811Z,96198.22
2023-04-13T18:28:49.483Z,96209.63
2023-04-13T18:31:16.599Z,96212.22
2023-04-13T18:33:44.122Z,96206.78
2023-04-13T18:36:15.135Z,96220.78
2023-04-13T18:38:41.910Z,96236.03
2023-04-13T18:41:08.632Z,96226.84
2023-04-13T18:43:35.290Z,96245.69
2023-04-13T18:46:01.971Z,96256.22
2023-04-13T18:48:29.793Z,96243.63
2023-04-13T18:50:56.463Z,96246.16
2023-04-13T18:53:23.238Z,96256.50
2023-04-13T18:55:51.155Z,96259.50
2023-04-13T18:58:21.138Z,96252.84
2023-04-13T19:00:48.275Z,96252.91
2023-04-13T19:03:15.133Z,96253.59
2023-04-13T19:05:41.944Z,96264.81
2023-04-13T19:08:10.070Z,96270.25
2023-04-13T19:10:36.828Z,96273.97
2023-04-13T19:13:03.498Z,96270.09
2023-04-13T19:15:31.160Z,96270.47
2023-04-13T19:17:58.668Z,96268.88
2023-04-13T19:20:25.682Z,96271.50
2023-04-13T19:22:52.448Z,96265.66
2023-04-13T19:25:19.315Z,96259.47
2023-04-13T19:27:46.482Z,96269.59
2023-04-13T19:30:14.283Z,96270.25
2023-04-13T19:32:43.101Z,96262.13
2023-04-13T19:35:10.718Z,96258.84
2023-04-13T19:37:38.218Z,96272.25
2023-04-13T19:40:14.821Z,96273.56
2023-04-13T19:42:42.607Z,96262.47
2023-04-13T19:45:10.673Z,96285.97
2023-04-13T19:47:37.737Z,96284.47
2023-04-13T19:50:05.099Z,96295.41
2023-04-13T19:52:31.830Z,96287.25
2023-04-13T19:54:58.433Z,96284.97
2023-04-13T19:57:25.410Z,96289.53
2023-04-13T19:59:52.085Z,96274.69
2023-04-13T20:02:18.942Z,96277.13
2023-04-13T20:04:47.462Z,96279.25
2023-04-13T20:07:14.179Z,96288.03
2023-04-13T20:09:40.909Z,96286.72
2023-04-13T20:12:07.687Z,96296.16
2023-04-13T20:14:34.423Z,96291.75
2023-04-13T20:17:01.109Z,96295.63
2023-04-13T20:19:27.737Z,96299.84
2023-04-13T20:21:54.394Z,96291.03
2023-04-13T20:24:21.064Z,96293.50
2023-04-13T20:26:47.873Z,96303.25
2023-04-13T20:29:19.085Z,96297.50
2023-04-13T20:31:45.840Z,96294.56
2023-04-13T20:34:13.603Z,96313.44
2023-04-13T20:36:40.603Z,96307.53
2023-04-13T20:39:09.745Z,96293.50
2023-04-13T20:41:37.057Z,96303.28
2023-04-13T20:44:04.098Z,96298.38
2023-04-13T20:46:37.789Z,96298.53
2023-04-13T20:49:05.262Z,96310.75
2023-04-13T20:51:33.501Z,96310.03
2023-04-13T20:54:02.710Z,96314.22
2023-04-13T20:56:30.083Z,96312.88
2023-04-13T20:58:58.199Z,96316.28
2023-04-13T21:01:25.530Z,96295.84
2023-04-13T21:03:53.078Z,96296.28
2023-04-13T21:06:20.032Z,96314.72
2023-04-13T21:08:46.905Z,96298.72
2023-04-13T21:11:13.686Z,96302.56
2023-04-13T21:13:40.568Z,96309.09
2023-04-13T21:16:09.125Z,96312.16
2023-04-13T21:18:36.860Z,96289.06
2023-04-13T21:21:06.012Z,96309.13
2023-04-13T21:23:32.899Z,96311.22
2023-04-13T21:25:59.600Z,96306.47
2023-04-13T21:28:29.133Z,96309.50
2023-04-13T21:30:56.032Z,96280.06
2023-04-13T21:33:23.282Z,96291.78
2023-04-13T21:35:50.011Z,96283.31
2023-04-13T21:38:16.709Z,96282.41
2023-04-13T21:40:43.385Z,96285.97
2023-04-13T21:43:10.113Z,96331.28
2023-04-13T21:45:37.029Z,96319.03
2023-04-13T21:48:03.976Z,96327.56
2023-04-13T21:50:30.689Z,96323.69
2023-04-13T21:52:57.319Z,96330.53
2023-04-13T21:55:26.489Z,96332.84
2023-04-13T21:57:53.174Z,96341.66
2023-04-13T22:00:20.472Z,96347.00
2023-04-13T22:02:47.404Z,96339.50
2023-04-13T22:05:16.392Z,96341.97
2023-04-13T22:07:43.612Z,96345.53
2023-04-13T22:10:11.464Z,96336.19
2023-04-13T22:12:38.488Z,96347.91
2023-04-13T22:15:06.349Z,96336.69
2023-04-13T22:17:33.462Z,96331.34
2023-04-13T22:20:00.160Z,96346.06
2023-04-13T22:22:27.234Z,96348.66
2023-04-13T22:24:54.376Z,96337.22
2023-04-13T22:27:21.922Z,96335.56
2023-04-13T22:29:48.676Z,96356.91
2023-04-13T22:32:16.777Z,96361.72
2023-04-13T22:34:43.526Z,96347.03
2023-04-13T22:37:12.389Z,96351.94
2023-04-13T22:39:39.623Z,96350.25
2023-04-13T22:42:06.473Z,96352.38
2023-04-13T22:44:34.368Z,96357.72
2023-04-13T22:47:02.632Z,96348.59
2023-04-13T22:49:30.057Z,96340.34
2023-04-13T22:51:57.125Z,96345.09
2023-04-13T22:54:25.140Z,96341.53
2023-04-13T22:56:52.982Z,96350.44
2023-04-13T22:59:19.697Z,96351.56
2023-04-13T23:01:46.776Z,96338.31
2023-04-13T23:04:15.919Z,96345.16
2023-04-13T23:06:43.074Z,96348.06
2023-04-13T23:09:09.712Z,96340.72
2023-04-13T23:11:36.464Z,96335.50
2023-04-13T23:14:03.413Z,96338.25
2023-04-13T23:16:30.200Z,96353.81
2023-04-13T23:18:57.017Z,96363.97
2023-04-13T23:21:23.843Z,96348.72
2023-04-13T23:23:50.626Z,96343.97
2023-04-13T23:26:17.377Z,96360.03
2023-04-13T23:28:44.343Z,96348.34
2023-04-13T23:31:11.102Z,96355.66
2023-04-13T23:33:37.997Z,96352.59
2023-04-13T23:36:05.133Z,96366.72
2023-04-13T23:38:32.468Z,96360.59
2023-04-13T23:40:59.415Z,96373.47
2023-04-13T23:43:26.216Z,96364.97
2023-04-13T23:45:53.424Z,96369.59
2023-04-13T23:48:22.911Z,96378.28
2023-04-13T23:50:49.923Z,96371.53
2023-04-13T23:53:16.715Z,96366.34
2023-04-13T23:55:43.463Z,96369.59
2023-04-13T23:58:10.168Z,96375.00
